This is the latest recevied weather packets stored in our database for station/object IU7LMH-13. If no packets are shown the sender has not sent any weather packets the latest 10 day(s).
| Time | Temp. | Humidity | Pressure | Rain* | Wind** | Luminosity | Snow |
|---|---|---|---|---|---|---|---|
| 1777827578 | 20.56° C | 50% | 1017 hPa | 0 mm | - | - | - |
| 1777827457 | 20.56° C | 51% | 1016.9 hPa | 0 mm | - | - | - |
| 1777826857 | 20.56° C | 50% | 1017.1 hPa | 0 mm | - | - | - |
| 1777826169 | 21.11° C | 51% | 1017 hPa | 0 mm | - | - | - |
| 1777825658 | 21.11° C | 51% | 1016.8 hPa | 0 mm | - | - | - |
| 1777825544 | 21.11° C | 51% | 1016.8 hPa | 0 mm | - | - | - |
| 1777825418 | 21.11° C | 49% | 1016.8 hPa | 0 mm | - | - | - |
| 1777824098 | 21.67° C | 52% | 1016.6 hPa | 0 mm | - | - | - |
| 1777823258 | 21.67° C | 51% | 1016.6 hPa | 0 mm | - | - | - |
| 1777822178 | 21.67° C | 50% | 1016.5 hPa | 0 mm | - | - | - |
| 1777821698 | 22.78° C | 51% | 1016.5 hPa | 0 mm | - | - | - |
| 1777821345 | 22.22° C | 50% | 1016.5 hPa | 0 mm | - | - | - |
| 1777819899 | 23.33° C | 46% | 1016.4 hPa | 0 mm | - | - | - |
| 1777818097 | 22.22° C | 46% | 1016.3 hPa | 0 mm | - | - | - |
| 1777817978 | 22.78° C | 45% | 1016.3 hPa | 0 mm | - | - | - |
| 1777817856 | 22.78° C | 44% | 1016.4 hPa | 0 mm | - | - | - |
| 1777817619 | 22.78° C | 45% | 1016.4 hPa | 0 mm | - | - | - |
| 1777817017 | 23.33° C | 42% | 1016.2 hPa | 0 mm | - | - | - |
| 1777816177 | 25.56° C | 30% | 1016.4 hPa | 0 mm | - | - | - |
| 1777815944 | 26.11° C | 29% | 1016.5 hPa | 0 mm | - | - | - |
| 1777815340 | 26.11° C | 29% | 1016.5 hPa | 0 mm | - | - | - |
| 1777814978 | 26.11° C | 30% | 1016.5 hPa | 0 mm | - | - | - |
| 1777814745 | 25.56° C | 29% | 1016.6 hPa | 0 mm | - | - | - |
| 1777814258 | 25.56° C | 30% | 1016.6 hPa | 0 mm | - | - | - |
| 1777814144 | 26.11° C | 28% | 1016.5 hPa | 0 mm | - | - | - |
* Rain latest hour (hover to see other rain measurements)
** Current wind speed in m/s (hover to see current wind gust speed)